Weather at Akron Executive Airport

Public forecast

Using degrees Fahrenheit for public forecast. Weather courtesy of forecast.io.

Current aviation weather report (METAR) for Akron Executive Airport

Retrieved 2020/12/04 22:54 UTC (29 minutes ago):

KAKR 042254Z AUTO 00000KT 10SM CLR 04/M03 A2987 RMK AO2 SLP120 T00391028

Closest aviation forecast (TAF) to Akron Executive Airport

Closest forecast is Akron Canton Regional Airport, 7.4 nm (13.7 km) S. Retrieved 2020/12/04 18:30 UTC (5 hours ago):

TAF KCAK 041728Z 0418/0518 23010KT P6SM FEW250 FM050200 25004KT P6SM BKN045 FM050900 33006KT P6SM VCSH OVC015